createdAt,value
2022-10-05T00:00:59.490Z,2.20
2022-10-05T00:03:37.393Z,2.20
2022-10-05T00:06:05.260Z,2.50
2022-10-05T00:08:34.701Z,2.10
2022-10-05T00:11:02.260Z,1.90
2022-10-05T00:13:31.213Z,1.98
2022-10-05T00:16:09.808Z,1.80
2022-10-05T00:18:39.014Z,1.80
2022-10-05T00:21:19.054Z,2.20
2022-10-05T00:23:46.858Z,2.60
2022-10-05T00:26:21.131Z,2.50
2022-10-05T00:28:49.341Z,2.30
2022-10-05T00:31:22.556Z,2.65
2022-10-05T00:33:50.985Z,2.60
2022-10-05T00:36:19.581Z,2.05
2022-10-05T00:38:47.079Z,2.20
2022-10-05T00:41:24.041Z,2.00
2022-10-05T00:44:13.129Z,2.28
2022-10-05T00:46:43.610Z,2.30
2022-10-05T00:49:20.365Z,2.60
2022-10-05T00:51:56.802Z,2.20
2022-10-05T00:54:48.974Z,1.98
2022-10-05T00:57:47.137Z,2.15
2022-10-05T01:00:20.086Z,2.30
2022-10-05T01:03:04.698Z,2.00
2022-10-05T01:06:02.373Z,2.00
2022-10-05T01:09:02.687Z,2.05
2022-10-05T01:11:35.766Z,2.22
2022-10-05T01:14:12.276Z,1.90
2022-10-05T01:16:55.002Z,2.10
2022-10-05T01:19:40.267Z,2.20
2022-10-05T01:22:10.374Z,2.20
2022-10-05T01:24:56.652Z,2.00
2022-10-05T01:27:43.158Z,2.17
2022-10-05T01:30:14.141Z,2.03
2022-10-05T01:33:11.893Z,2.10
2022-10-05T01:36:03.629Z,2.20
2022-10-05T01:38:46.513Z,2.38
2022-10-05T01:41:29.274Z,1.98
2022-10-05T01:44:20.095Z,1.90
2022-10-05T01:47:07.007Z,2.20
2022-10-05T01:49:56.827Z,2.35
2022-10-05T01:52:45.328Z,2.38
2022-10-05T01:55:35.377Z,2.30
2022-10-05T01:58:20.092Z,2.30
2022-10-05T02:01:04.467Z,2.10
2022-10-05T02:04:08.664Z,2.25
2022-10-05T02:06:42.626Z,2.25
2022-10-05T02:09:33.880Z,2.13
2022-10-05T02:12:07.233Z,2.20
2022-10-05T02:14:42.126Z,2.10
2022-10-05T02:17:19.915Z,2.35
2022-10-05T02:19:52.538Z,2.33
2022-10-05T02:22:42.959Z,2.13
2022-10-05T02:25:16.296Z,2.33
2022-10-05T02:28:18.351Z,2.30
2022-10-05T02:30:54.346Z,2.47
2022-10-05T02:33:33.356Z,2.70
2022-10-05T02:36:33.218Z,2.58
2022-10-05T02:39:08.080Z,2.50
2022-10-05T02:42:09.157Z,2.22
2022-10-05T02:45:07.655Z,2.63
2022-10-05T02:47:52.657Z,2.20
2022-10-05T02:50:53.616Z,2.25
2022-10-05T02:53:45.600Z,1.90
2022-10-05T02:57:02.466Z,2.30
2022-10-05T02:59:39.336Z,2.30
2022-10-05T03:02:19.067Z,2.15
2022-10-05T03:04:55.683Z,2.05
2022-10-05T03:07:42.002Z,2.30
2022-10-05T03:10:22.298Z,2.30
2022-10-05T03:13:00.741Z,2.25
2022-10-05T03:15:52.634Z,2.30
2022-10-05T03:18:30.875Z,2.10
2022-10-05T03:21:23.128Z,2.20
2022-10-05T03:24:02.556Z,2.28
2022-10-05T03:26:33.118Z,2.42
2022-10-05T03:29:38.564Z,2.10
2022-10-05T03:32:24.093Z,2.10
2022-10-05T03:35:03.641Z,2.55
2022-10-05T03:37:50.074Z,2.70
2022-10-05T03:40:45.573Z,2.33
2022-10-05T03:43:47.855Z,2.53
2022-10-05T03:46:37.460Z,2.60
2022-10-05T03:49:37.152Z,2.20
2022-10-05T03:52:23.033Z,2.20
2022-10-05T03:55:31.899Z,3.17
2022-10-05T03:58:07.349Z,2.33
2022-10-05T04:00:36.392Z,2.67
2022-10-05T04:03:29.895Z,2.70
2022-10-05T04:06:10.508Z,2.53
2022-10-05T04:09:11.842Z,2.65
2022-10-05T04:11:55.033Z,2.80
2022-10-05T04:14:24.398Z,2.63
2022-10-05T04:17:03.066Z,2.90
2022-10-05T04:19:51.431Z,3.15
2022-10-05T04:22:31.986Z,2.80
2022-10-05T04:25:14.063Z,2.88
2022-10-05T04:28:08.084Z,2.67
2022-10-05T04:30:40.335Z,2.65
2022-10-05T04:33:12.846Z,2.75
2022-10-05T04:36:08.483Z,3.03
2022-10-05T04:38:44.869Z,2.88
2022-10-05T04:41:27.307Z,2.72
2022-10-05T04:44:20.125Z,2.92
2022-10-05T04:47:22.614Z,2.80
2022-10-05T04:50:15.199Z,2.60
2022-10-05T04:53:07.619Z,2.85
2022-10-05T04:55:34.930Z,3.17
2022-10-05T04:58:43.459Z,2.70
2022-10-05T05:01:36.620Z,2.72
2022-10-05T05:04:42.104Z,3.03
2022-10-05T05:07:35.161Z,3.17
2022-10-05T05:10:23.589Z,3.17
2022-10-05T05:13:12.378Z,3.20
2022-10-05T05:15:43.171Z,3.78
2022-10-05T05:18:17.445Z,3.50
2022-10-05T05:21:19.288Z,4.00
2022-10-05T05:24:05.575Z,3.47
2022-10-05T05:27:01.232Z,3.92
2022-10-05T05:29:45.428Z,4.38
2022-10-05T05:32:38.087Z,4.40
2022-10-05T05:35:16.655Z,4.03
2022-10-05T05:37:53.000Z,4.18
2022-10-05T05:40:39.227Z,4.43
2022-10-05T05:43:12.679Z,4.20
2022-10-05T05:45:44.719Z,4.47
2022-10-05T05:48:19.582Z,4.13
2022-10-05T05:51:00.133Z,4.32
2022-10-05T05:53:43.308Z,4.78
2022-10-05T05:56:28.094Z,3.30
2022-10-05T05:59:13.331Z,3.42
2022-10-05T06:01:55.398Z,4.10
2022-10-05T06:04:28.067Z,4.28
2022-10-05T06:06:58.486Z,3.88
2022-10-05T06:09:38.374Z,4.25
2022-10-05T06:12:22.153Z,4.47
2022-10-05T06:15:14.506Z,4.68
2022-10-05T06:17:53.073Z,5.00
2022-10-05T06:20:37.670Z,4.95
2022-10-05T06:23:21.390Z,5.38
2022-10-05T06:26:31.411Z,5.20
2022-10-05T06:29:04.264Z,5.57
2022-10-05T06:31:44.223Z,5.43
2022-10-05T06:34:44.818Z,5.38
2022-10-05T06:37:29.896Z,5.47
2022-10-05T06:40:27.536Z,4.90
2022-10-05T06:43:17.496Z,5.60
2022-10-05T06:45:53.410Z,5.18
2022-10-05T06:48:48.480Z,5.65
2022-10-05T06:51:49.333Z,5.57
2022-10-05T06:54:41.667Z,6.22
2022-10-05T06:57:09.371Z,5.78
2022-10-05T06:59:56.352Z,6.13
2022-10-05T07:02:30.023Z,5.70
2022-10-05T07:05:34.546Z,5.70
2022-10-05T07:08:26.183Z,6.43
2022-10-05T07:11:13.628Z,6.40
2022-10-05T07:13:56.753Z,6.07
2022-10-05T07:17:00.145Z,6.93
2022-10-05T07:19:58.284Z,6.45
2022-10-05T07:22:28.271Z,6.95
2022-10-05T07:25:14.323Z,6.88
2022-10-05T07:27:53.588Z,6.90
2022-10-05T07:30:21.523Z,7.43
2022-10-05T07:33:12.671Z,6.95
2022-10-05T07:36:04.959Z,7.38
2022-10-05T07:39:00.360Z,7.57
2022-10-05T07:41:53.055Z,7.85
2022-10-05T07:44:37.265Z,7.78
2022-10-05T07:47:26.020Z,7.85
2022-10-05T07:50:04.259Z,7.63
2022-10-05T07:52:38.974Z,8.15
2022-10-05T07:55:15.839Z,8.32
2022-10-05T07:58:02.021Z,8.80
2022-10-05T08:01:00.097Z,7.95
2022-10-05T08:03:27.857Z,7.63
2022-10-05T08:05:57.954Z,7.97
2022-10-05T08:08:44.344Z,7.85
2022-10-05T08:11:38.954Z,7.50
2022-10-05T08:14:37.890Z,7.75
2022-10-05T08:17:25.416Z,6.80
2022-10-05T08:20:06.077Z,6.93
2022-10-05T08:22:53.226Z,6.93
2022-10-05T08:25:26.718Z,6.70
2022-10-05T08:28:06.525Z,6.00
2022-10-05T08:30:55.612Z,6.22
2022-10-05T08:33:27.129Z,6.10
2022-10-05T08:36:07.592Z,6.30
2022-10-05T08:38:37.383Z,6.45
2022-10-05T08:41:26.444Z,6.55
2022-10-05T08:44:32.558Z,6.30
2022-10-05T08:47:28.664Z,5.30
2022-10-05T08:50:23.343Z,6.50
2022-10-05T08:53:31.184Z,5.80
2022-10-05T08:56:19.082Z,5.80
2022-10-05T08:59:15.238Z,5.15
2022-10-05T09:02:21.041Z,4.88
2022-10-05T09:05:24.937Z,5.00
2022-10-05T09:08:32.482Z,5.53
2022-10-05T09:11:05.236Z,5.00
2022-10-05T09:13:54.056Z,4.43
2022-10-05T09:16:44.748Z,4.22
2022-10-05T09:19:23.148Z,4.07
2022-10-05T09:22:24.566Z,4.15
2022-10-05T09:24:57.363Z,4.28
2022-10-05T09:27:38.297Z,4.70
2022-10-05T09:30:13.366Z,4.45
2022-10-05T09:32:59.931Z,3.97
2022-10-05T09:35:27.382Z,4.20
2022-10-05T09:38:14.410Z,5.13
2022-10-05T09:41:20.360Z,4.90
2022-10-05T09:47:52.019Z,4.57
2022-10-05T09:50:38.018Z,3.13
2022-10-05T09:53:35.953Z,3.75
2022-10-05T09:56:15.772Z,5.32
2022-10-05T09:59:11.362Z,5.43
2022-10-05T10:02:04.889Z,6.13
2022-10-05T10:04:55.015Z,6.70
2022-10-05T10:07:43.190Z,6.35
2022-10-05T10:10:37.148Z,7.07
2022-10-05T10:13:32.615Z,7.03
2022-10-05T10:16:10.108Z,6.72
2022-10-05T10:19:04.201Z,7.57
2022-10-05T10:21:56.383Z,8.02
2022-10-05T10:24:59.466Z,8.13
2022-10-05T10:27:56.312Z,8.20
2022-10-05T10:30:45.839Z,8.10
2022-10-05T10:33:33.488Z,8.75
2022-10-05T10:36:35.740Z,9.43
2022-10-05T10:39:23.201Z,9.27
2022-10-05T10:42:20.465Z,10.05
2022-10-05T10:45:12.795Z,9.05
2022-10-05T10:47:55.696Z,9.13
2022-10-05T10:50:47.691Z,9.55
2022-10-05T10:53:46.318Z,9.68
2022-10-05T10:56:48.867Z,9.30
2022-10-05T10:59:47.486Z,9.75
2022-10-05T11:02:31.109Z,9.07
2022-10-05T11:05:14.973Z,9.52
2022-10-05T11:08:59.708Z,9.60
2022-10-05T11:11:44.216Z,8.63
2022-10-05T11:14:52.885Z,9.60
2022-10-05T11:17:42.246Z,9.32
2022-10-05T11:20:54.120Z,8.15
2022-10-05T11:26:47.308Z,8.90
2022-10-05T11:29:41.819Z,8.57
2022-10-05T11:32:29.857Z,7.43
2022-10-05T11:35:37.991Z,8.40
2022-10-05T11:38:11.326Z,8.13
2022-10-05T11:41:16.465Z,9.27
2022-10-05T11:43:54.273Z,8.52
2022-10-05T11:46:27.967Z,7.43
2022-10-05T11:49:20.511Z,8.07
2022-10-05T11:52:06.620Z,8.32
2022-10-05T11:55:16.133Z,7.90
2022-10-05T11:57:54.800Z,9.10
2022-10-05T12:00:32.963Z,7.82
2022-10-05T12:03:03.684Z,9.00
2022-10-05T12:05:40.217Z,9.55
2022-10-05T12:08:49.721Z,9.57
2022-10-05T12:28:50.001Z,11.38
2022-10-05T12:31:35.562Z,10.75
2022-10-05T12:34:30.148Z,11.57
2022-10-05T12:37:06.459Z,11.30
2022-10-05T12:39:39.913Z,11.50
2022-10-05T12:42:07.257Z,12.30
2022-10-05T12:44:49.429Z,11.43
2022-10-05T12:47:44.842Z,12.57
2022-10-05T12:50:28.617Z,11.60
2022-10-05T12:53:02.147Z,12.35
2022-10-05T12:55:53.580Z,11.98
2022-10-05T12:58:33.526Z,12.65
2022-10-05T13:01:17.238Z,11.60
2022-10-05T13:04:04.731Z,13.13
2022-10-05T13:06:42.692Z,11.73
2022-10-05T13:09:33.240Z,11.63
2022-10-05T13:12:09.140Z,11.68
2022-10-05T13:14:55.641Z,12.55
2022-10-05T13:17:42.216Z,12.13
2022-10-05T13:20:31.311Z,10.70
2022-10-05T13:23:14.433Z,11.88
2022-10-05T13:26:01.845Z,11.77
2022-10-05T13:28:46.548Z,10.93
2022-10-05T13:31:21.783Z,11.30
2022-10-05T13:33:52.099Z,11.25
2022-10-05T13:36:36.146Z,12.20
2022-10-05T13:39:24.976Z,11.32
2022-10-05T13:42:17.792Z,11.73
2022-10-05T13:44:59.385Z,11.63
2022-10-05T13:48:21.165Z,10.48
2022-10-05T13:50:52.267Z,11.25
2022-10-05T13:53:25.104Z,11.30
2022-10-05T13:55:57.979Z,11.63
2022-10-05T13:58:50.257Z,12.82
2022-10-05T14:01:29.372Z,12.18
2022-10-05T14:04:16.217Z,12.23
2022-10-05T14:06:46.023Z,12.85
2022-10-05T14:09:25.505Z,12.13
2022-10-05T14:12:14.567Z,12.40
2022-10-05T14:15:09.824Z,12.20
2022-10-05T14:17:40.685Z,13.63
2022-10-05T14:20:37.838Z,13.27
2022-10-05T14:23:17.363Z,13.98
2022-10-05T14:25:54.272Z,14.07
2022-10-05T14:28:38.469Z,14.75
2022-10-05T14:31:26.823Z,13.88
2022-10-05T14:33:54.434Z,16.45
2022-10-05T14:36:37.234Z,15.88
2022-10-05T14:39:12.845Z,16.92
2022-10-05T14:41:48.799Z,16.42
2022-10-05T14:44:26.398Z,15.15
2022-10-05T14:47:02.860Z,16.42
2022-10-05T14:49:37.570Z,17.52
2022-10-05T14:52:34.805Z,16.90
2022-10-05T14:55:18.099Z,17.17
2022-10-05T14:58:11.967Z,18.27
2022-10-05T15:00:52.032Z,17.52
2022-10-05T15:03:19.854Z,17.88
2022-10-05T15:05:59.295Z,17.75
2022-10-05T15:09:03.126Z,19.88
2022-10-05T15:11:38.341Z,18.35
2022-10-05T15:14:19.717Z,20.90
2022-10-05T15:16:52.170Z,19.65
2022-10-05T15:19:28.015Z,20.50
2022-10-05T15:22:11.322Z,19.70
2022-10-05T15:24:52.770Z,20.20
2022-10-05T15:27:47.474Z,18.48
2022-10-05T15:30:22.548Z,20.42
2022-10-05T15:33:13.062Z,18.17
2022-10-05T15:36:04.839Z,17.88
2022-10-05T15:39:11.114Z,20.63
2022-10-05T15:41:55.771Z,20.77
2022-10-05T15:44:49.504Z,20.33
2022-10-05T15:47:21.823Z,16.65
2022-10-05T15:50:38.784Z,21.83
2022-10-05T15:53:43.626Z,19.85
2022-10-05T15:56:33.248Z,18.98
2022-10-05T15:59:26.932Z,19.25
2022-10-05T16:02:01.624Z,18.95
2022-10-05T16:04:52.807Z,16.75
2022-10-05T16:07:46.697Z,19.08
2022-10-05T16:10:24.442Z,18.20
2022-10-05T16:12:58.314Z,17.90
2022-10-05T16:15:33.900Z,17.55
2022-10-05T16:18:36.562Z,19.10
2022-10-05T16:21:32.599Z,19.60
2022-10-05T16:24:19.782Z,20.80
2022-10-05T16:27:14.630Z,20.08
2022-10-05T16:29:56.243Z,21.48
2022-10-05T16:32:33.181Z,22.77
2022-10-05T16:35:19.942Z,22.63
2022-10-05T16:38:26.127Z,20.83
2022-10-05T16:41:14.760Z,24.33
2022-10-05T16:44:00.786Z,26.80
2022-10-05T16:46:40.432Z,24.80
2022-10-05T16:49:26.795Z,25.70
2022-10-05T16:52:02.286Z,23.15
2022-10-05T16:54:48.046Z,24.42
2022-10-05T16:57:21.900Z,24.15
2022-10-05T16:59:57.996Z,27.02
2022-10-05T17:02:53.881Z,26.35
2022-10-05T17:05:39.149Z,24.50
2022-10-05T17:08:32.185Z,25.30
2022-10-05T17:11:16.677Z,25.38
2022-10-05T17:14:14.589Z,25.85
2022-10-05T17:16:56.542Z,26.80
2022-10-05T17:19:38.053Z,26.25
2022-10-05T17:22:31.532Z,28.50
2022-10-05T17:25:34.465Z,29.98
2022-10-05T17:28:39.655Z,27.73
2022-10-05T17:31:17.685Z,28.27
2022-10-05T17:34:03.158Z,26.80
2022-10-05T17:36:45.915Z,27.02
2022-10-05T17:39:17.780Z,28.17
2022-10-05T17:41:45.573Z,28.10
2022-10-05T17:44:24.629Z,30.33
2022-10-05T17:47:00.859Z,26.27
2022-10-05T17:49:34.474Z,31.23
2022-10-05T17:52:39.664Z,31.17
2022-10-05T17:55:41.480Z,29.70
2022-10-05T17:58:28.071Z,26.33
2022-10-05T18:01:00.105Z,26.30
2022-10-05T18:03:43.075Z,27.95
2022-10-05T18:06:34.389Z,27.30
2022-10-05T18:09:36.375Z,27.25
2022-10-05T18:12:12.267Z,23.63
2022-10-05T18:14:55.824Z,23.48
2022-10-05T18:18:20.957Z,22.20
2022-10-05T18:21:28.326Z,21.40
2022-10-05T18:23:58.715Z,21.58
2022-10-05T18:26:59.698Z,20.67
2022-10-05T18:30:03.491Z,20.40
2022-10-05T18:33:01.447Z,23.17
2022-10-05T18:35:40.666Z,23.00
2022-10-05T18:38:46.345Z,25.67
2022-10-05T18:41:37.664Z,24.80
2022-10-05T18:44:12.345Z,30.65
2022-10-05T18:46:58.205Z,21.35
2022-10-05T18:49:27.717Z,23.08
2022-10-05T18:52:37.709Z,21.88
2022-10-05T18:55:26.457Z,20.67
2022-10-05T18:57:54.200Z,20.42
2022-10-05T19:00:24.065Z,21.75
2022-10-05T19:03:19.399Z,19.67
2022-10-05T19:06:12.737Z,21.33
2022-10-05T19:09:28.845Z,20.08
2022-10-05T19:12:13.329Z,22.17
2022-10-05T19:15:01.330Z,23.40
2022-10-05T19:18:01.389Z,24.15
2022-10-05T19:20:42.056Z,15.38
2022-10-05T19:23:50.697Z,25.13
2022-10-05T19:26:25.091Z,24.15
2022-10-05T19:29:22.826Z,23.45
2022-10-05T19:32:02.634Z,21.67
2022-10-05T19:34:45.183Z,24.40
2022-10-05T19:53:24.340Z,23.55
2022-10-05T19:55:54.199Z,20.23
2022-10-05T19:58:26.749Z,19.35
2022-10-05T20:00:58.912Z,21.45
2022-10-05T20:03:31.896Z,22.80
2022-10-05T20:06:01.607Z,22.80
2022-10-05T20:08:45.056Z,21.45
2022-10-05T20:11:15.539Z,22.83
2022-10-05T20:13:46.160Z,23.42
2022-10-05T20:16:35.114Z,22.98
2022-10-05T20:19:47.655Z,20.10
2022-10-05T20:22:46.513Z,15.70
2022-10-05T20:25:20.236Z,19.85
2022-10-05T20:27:53.418Z,19.27
2022-10-05T20:30:23.514Z,19.48
2022-10-05T20:32:53.201Z,19.83
2022-10-05T20:35:23.545Z,18.98
2022-10-05T20:37:51.187Z,18.92
2022-10-05T20:40:20.302Z,18.25
2022-10-05T20:42:48.574Z,18.85
2022-10-05T20:45:16.168Z,18.35
2022-10-05T20:47:44.094Z,17.92
2022-10-05T20:50:14.392Z,19.83
2022-10-05T20:52:41.763Z,19.80
2022-10-05T20:55:10.935Z,15.15
2022-10-05T20:57:42.181Z,21.38
2022-10-05T21:00:11.771Z,18.67
2022-10-05T21:02:40.056Z,20.50
2022-10-05T21:05:08.063Z,20.92
2022-10-05T21:07:35.542Z,20.48
2022-10-05T21:10:04.285Z,22.75
2022-10-05T21:12:35.168Z,22.23
2022-10-05T21:15:04.904Z,23.70
2022-10-05T21:17:34.763Z,21.40
2022-10-05T21:20:02.265Z,21.83
2022-10-05T21:22:29.855Z,23.13
2022-10-05T21:24:57.330Z,21.65
2022-10-05T21:27:24.744Z,23.33
2022-10-05T21:29:52.456Z,21.58
2022-10-05T21:32:19.994Z,20.77
2022-10-05T21:34:47.592Z,22.15
2022-10-05T21:37:15.710Z,21.60
2022-10-05T21:39:43.114Z,20.35
2022-10-05T21:42:10.863Z,20.40
2022-10-05T21:44:38.256Z,20.77
2022-10-05T21:47:07.213Z,17.77
2022-10-05T21:49:36.592Z,20.73
2022-10-05T21:52:05.782Z,21.42
2022-10-05T21:54:34.521Z,21.13
2022-10-05T21:57:02.933Z,22.13
2022-10-05T21:59:33.047Z,21.45
2022-10-05T22:02:01.108Z,21.42
2022-10-05T22:04:28.681Z,16.20
2022-10-05T22:06:56.763Z,21.98
2022-10-05T22:09:24.317Z,19.25
2022-10-05T22:11:51.848Z,21.48
2022-10-05T22:14:19.444Z,20.92
2022-10-05T22:16:47.441Z,22.08
2022-10-05T22:19:18.037Z,11.70
2022-10-05T22:21:45.617Z,23.42
2022-10-05T22:24:13.255Z,20.52
2022-10-05T22:26:43.955Z,22.33
2022-10-05T22:29:11.598Z,22.65
2022-10-05T22:31:39.870Z,24.10
2022-10-05T22:34:07.487Z,18.50
2022-10-05T22:36:36.057Z,23.85
2022-10-05T22:39:03.930Z,24.00
2022-10-05T22:41:31.375Z,24.88
2022-10-05T22:43:59.094Z,24.98
2022-10-05T22:46:26.579Z,20.85
2022-10-05T22:48:54.479Z,22.65
2022-10-05T22:51:22.305Z,23.65
2022-10-05T22:53:49.624Z,20.60
2022-10-05T22:56:17.578Z,20.63
2022-10-05T22:58:45.535Z,22.25
2022-10-05T23:01:15.697Z,22.20
2022-10-05T23:03:43.771Z,21.95
2022-10-05T23:06:13.693Z,21.70
2022-10-05T23:08:42.182Z,23.27
2022-10-05T23:11:15.070Z,23.65
2022-10-05T23:13:43.489Z,24.70
2022-10-05T23:16:16.993Z,24.50
2022-10-05T23:18:45.261Z,23.42
2022-10-05T23:21:12.835Z,24.00
2022-10-05T23:23:42.908Z,24.27
2022-10-05T23:26:12.085Z,23.77
2022-10-05T23:28:43.478Z,25.48
2022-10-05T23:31:11.182Z,21.05
2022-10-05T23:33:38.942Z,21.70
2022-10-05T23:36:33.252Z,22.95
2022-10-05T23:39:01.025Z,21.85
2022-10-05T23:41:29.348Z,23.65
2022-10-05T23:43:56.824Z,24.88
2022-10-05T23:46:24.459Z,25.05
2022-10-05T23:48:53.390Z,24.02
2022-10-05T23:51:20.976Z,22.30
2022-10-05T23:53:48.529Z,23.30
2022-10-05T23:56:16.165Z,23.27
2022-10-05T23:58:44.051Z,24.02
